Baranain, Spain
Current Conditions -  °F | °C
As of 6:30 PM on Monday 22 Dec 2014 (Local Time) from LEPP Reporting Station
Few Clouds Few Clouds  
Wind Chill: 28°   Ceiling: Unl
Heat Index: 36°   Visibility: 4mi
Dew Point: 36°   Wind: 12mph
Humidity: 100%   Direction: 140°SE
Pressure: 30.42"   Gusts: NA
Location:  42.81°N, 1.68°W
Report Text: LEPP 221730Z 14010KT 7000 FEW010 02/02 Q1030
Loading
Personal Weather Stations






























Interactive Weather Map New forecast layout! Learn more

10-Day Weather Forecast

Advertisements
Track Severe Weather on mobile